Time;durP1;ratioP1;P1;durP2;ratioP2;P2;SDS_P1;SDS_P2;PMS_P1;PMS_P2;Temp;Humidity;BMP_temperature;BMP_pressure;BME280_temperature;BME280_humidity;BME280_pressure;Samples;Min_cycle;Max_cycle;Signal;HPM_P1;HPM_P2
2021/07/31 00:01:40;;;;;;;11.77;9.18;;;;;;;;;;6247807;23;20023;-81
2021/07/31 00:04:13;;;;;;;12.40;8.70;;;;;;;;;;6247678;23;20028;-82
2021/07/31 00:06:39;;;;;;;12.70;8.77;;;;;;;;;;6245278;23;20032;-82
2021/07/31 00:09:06;;;;;;;10.05;8.45;;;;;;;;;;6246790;23;20072;-81
2021/07/31 00:11:32;;;;;;;18.30;7.63;;;;;;;;;;6220081;23;20024;-82
2021/07/31 00:13:59;;;;;;;12.98;6.78;;;;;;;;;;6220369;23;20363;-80
2021/07/31 00:16:26;;;;;;;13.68;7.10;;;;;;;;;;6245937;23;20030;-83
2021/07/31 00:18:52;;;;;;;10.05;7.13;;;;;;;;;;6224042;23;20064;-82
2021/07/31 00:21:20;;;;;;;12.43;7.53;;;;;;;;;;6258763;23;20028;-82
2021/07/31 00:23:47;;;;;;;8.63;6.65;;;;;;;;;;6253662;23;20035;-82
2021/07/31 00:26:13;;;;;;;9.75;7.22;;;;;;;;;;6220193;23;20127;-81
2021/07/31 00:28:40;;;;;;;10.57;6.35;;;;;;;;;;6246648;23;20039;-81
2021/07/31 00:31:07;;;;;;;8.27;5.95;;;;;;;;;;6259383;23;20146;-81
2021/07/31 00:33:39;;;;;;;12.20;5.90;;;;;;;;;;6254586;22;20075;-81
2021/07/31 00:36:06;;;;;;;8.93;5.40;;;;;;;;;;6253138;22;20024;-81
2021/07/31 00:38:36;;;;;;;7.30;5.00;;;;;;;;;;6276703;22;20293;-82
2021/07/31 00:41:03;;;;;;;9.05;5.47;;;;;;;;;;6277380;22;20055;-83
2021/07/31 00:43:32;;;;;;;9.48;4.82;;;;;;;;;;6248348;22;20086;-82
2021/07/31 00:46:02;;;;;;;9.63;5.50;;;;;;;;;;6247434;22;20024;-83
2021/07/31 00:48:33;;;;;;;7.35;5.30;;;;;;;;;;6276879;22;20031;-83
2021/07/31 00:51:03;;;;;;;7.38;5.35;;;;;;;;;;6251247;22;20030;-83
2021/07/31 00:53:30;;;;;;;20.00;5.25;;;;;;;;;;6278767;22;20038;-81
2021/07/31 00:55:57;;;;;;;10.25;5.28;;;;;;;;;;6279370;22;20030;-83
2021/07/31 00:58:24;;;;;;;9.65;5.57;;;;;;;;;;6281201;22;20023;-83
2021/07/31 01:00:53;;;;;;;9.30;6.50;;;;;;;;;;6296891;22;20027;-82
2021/07/31 01:03:19;;;;;;;8.20;5.50;;;;;;;;;;6293481;22;20034;-82
2021/07/31 01:05:46;;;;;;;12.90;6.55;;;;;;;;;;6276541;22;20024;-83
2021/07/31 01:08:12;;;;;;;9.73;6.30;;;;;;;;;;6251265;22;20324;-83
2021/07/31 01:10:39;;;;;;;10.80;6.55;;;;;;;;;;6259915;22;20305;-83
2021/07/31 01:13:10;;;;;;;14.02;6.32;;;;;;;;;;6260398;22;20060;-83
2021/07/31 01:15:36;;;;;;;15.70;5.90;;;;;;;;;;6261132;22;20039;-83
2021/07/31 01:18:03;;;;;;;9.68;5.97;;;;;;;;;;6276413;22;20366;-84
2021/07/31 01:20:30;;;;;;;6.80;5.57;;;;;;;;;;6277074;22;20023;-84
2021/07/31 01:22:56;;;;;;;14.15;5.65;;;;;;;;;;6278378;22;20035;-83
2021/07/31 01:25:23;;;;;;;14.10;4.93;;;;;;;;;;6278053;22;20350;-84
2021/07/31 01:27:49;;;;;;;10.07;4.93;;;;;;;;;;6278468;22;20375;-84
2021/07/31 01:30:16;;;;;;;10.75;5.72;;;;;;;;;;6251230;22;20103;-83
2021/07/31 01:32:43;;;;;;;9.85;4.47;;;;;;;;;;6258153;22;20417;-83
2021/07/31 01:35:10;;;;;;;10.93;5.30;;;;;;;;;;6249181;23;20079;-83
2021/07/31 01:37:36;;;;;;;10.07;4.38;;;;;;;;;;6223686;23;20024;-83
2021/07/31 01:40:10;;;;;;;7.82;4.63;;;;;;;;;;6226378;23;20389;-83
2021/07/31 01:42:37;;;;;;;12.18;5.10;;;;;;;;;;6223936;23;20405;-84
2021/07/31 01:45:04;;;;;;;7.20;4.78;;;;;;;;;;6249970;23;20028;-84
2021/07/31 01:47:30;;;;;;;8.88;4.47;;;;;;;;;;6251539;23;20397;-83
2021/07/31 01:49:58;;;;;;;13.20;5.20;;;;;;;;;;6225688;23;20247;-85
2021/07/31 01:52:24;;;;;;;10.32;5.78;;;;;;;;;;6250859;23;20024;-85
2021/07/31 01:54:51;;;;;;;7.38;4.03;;;;;;;;;;6223278;23;20054;-85
2021/07/31 01:57:36;;;;;;;8.15;4.35;;;;;;;;;;6226410;23;20492;-83
2021/07/31 02:00:03;;;;;;;15.07;4.63;;;;;;;;;;6250244;23;20123;-85
2021/07/31 02:02:30;;;;;;;14.30;4.53;;;;;;;;;;6251671;23;20310;-84
2021/07/31 02:04:57;;;;;;;10.35;4.20;;;;;;;;;;6224221;23;20035;-83
2021/07/31 02:07:27;;;;;;;7.93;4.30;;;;;;;;;;6253081;23;20028;-84
2021/07/31 02:09:53;;;;;;;8.70;4.05;;;;;;;;;;6256506;23;20027;-84
2021/07/31 02:12:20;;;;;;;13.57;4.20;;;;;;;;;;6268118;22;20043;-84
2021/07/31 02:14:58;;;;;;;9.20;3.88;;;;;;;;;;6259652;23;20032;-85
2021/07/31 02:17:25;;;;;;;7.80;4.15;;;;;;;;;;6260771;23;20051;-85
2021/07/31 02:19:52;;;;;;;5.53;3.90;;;;;;;;;;6260173;23;20042;-85
2021/07/31 02:22:18;;;;;;;7.28;3.78;;;;;;;;;;6256119;23;20164;-84
2021/07/31 02:24:52;;;;;;;10.10;4.10;;;;;;;;;;6253717;23;20024;-84
2021/07/31 02:27:19;;;;;;;10.85;3.75;;;;;;;;;;6265855;23;20027;-84
2021/07/31 02:29:49;;;;;;;9.38;3.75;;;;;;;;;;6268054;23;20043;-84
2021/07/31 02:32:19;;;;;;;9.73;3.65;;;;;;;;;;6256837;22;20107;-85
2021/07/31 02:34:48;;;;;;;6.35;2.83;;;;;;;;;;6298786;22;20082;-85
2021/07/31 02:37:15;;;;;;;7.35;3.58;;;;;;;;;;6295762;22;20042;-85
2021/07/31 02:39:42;;;;;;;14.13;3.83;;;;;;;;;;6263871;22;20280;-85
2021/07/31 02:42:08;;;;;;;6.55;3.20;;;;;;;;;;6285241;22;20034;-85
2021/07/31 02:44:44;;;;;;;8.73;3.25;;;;;;;;;;6285447;22;20034;-85
2021/07/31 02:47:11;;;;;;;9.77;3.33;;;;;;;;;;6285130;22;20075;-85
2021/07/31 02:49:37;;;;;;;10.65;3.42;;;;;;;;;;6286205;22;20150;-85
2021/07/31 02:52:04;;;;;;;8.35;2.97;;;;;;;;;;6285688;22;20024;-85
2021/07/31 02:54:31;;;;;;;9.63;3.47;;;;;;;;;;6260592;22;20023;-85
2021/07/31 02:56:57;;;;;;;11.02;3.42;;;;;;;;;;6257402;22;20024;-85
2021/07/31 02:59:27;;;;;;;7.50;3.85;;;;;;;;;;6285214;22;20416;-85
2021/07/31 03:01:53;;;;;;;5.95;2.70;;;;;;;;;;6259158;22;20027;-85
2021/07/31 03:04:20;;;;;;;5.43;2.63;;;;;;;;;;6258300;22;20078;-85
2021/07/31 03:06:47;;;;;;;7.43;2.88;;;;;;;;;;6285649;22;20034;-85
2021/07/31 03:09:13;;;;;;;8.30;2.97;;;;;;;;;;6287459;22;20330;-85
2021/07/31 03:11:40;;;;;;;9.18;2.60;;;;;;;;;;6300937;22;20023;-84
2021/07/31 03:14:07;;;;;;;8.07;2.53;;;;;;;;;;6295189;22;20099;-85
2021/07/31 03:16:34;;;;;;;7.15;2.47;;;;;;;;;;6288540;22;20035;-85
2021/07/31 03:19:00;;;;;;;10.48;2.20;;;;;;;;;;6286781;22;20051;-85
2021/07/31 03:21:27;;;;;;;12.73;3.38;;;;;;;;;;6297166;22;20050;-85
2021/07/31 03:23:57;;;;;;;7.65;2.67;;;;;;;;;;6291904;22;20028;-85
2021/07/31 03:26:23;;;;;;;9.45;2.75;;;;;;;;;;6285759;22;20079;-85
2021/07/31 03:28:50;;;;;;;10.98;2.72;;;;;;;;;;6258920;22;20028;-85
2021/07/31 03:31:20;;;;;;;7.47;3.35;;;;;;;;;;6282321;22;20023;-84
2021/07/31 03:33:47;;;;;;;8.38;2.67;;;;;;;;;;6227953;23;20095;-84
2021/07/31 03:36:14;;;;;;;7.93;2.80;;;;;;;;;;6228150;23;20390;-85
2021/07/31 03:38:44;;;;;;;13.30;2.85;;;;;;;;;;6253040;23;20413;-84
2021/07/31 03:41:19;;;;;;;7.22;2.47;;;;;;;;;;6253930;23;20364;-84
2021/07/31 03:43:46;;;;;;;6.53;2.55;;;;;;;;;;6252835;23;20279;-84
2021/07/31 03:46:12;;;;;;;6.32;2.53;;;;;;;;;;6253236;23;20024;-85
2021/07/31 03:48:39;;;;;;;10.90;3.00;;;;;;;;;;6227057;23;20032;-85
2021/07/31 03:51:08;;;;;;;9.23;2.90;;;;;;;;;;6253129;23;20027;-84
2021/07/31 03:53:35;;;;;;;10.63;2.42;;;;;;;;;;6252496;23;20266;-84
2021/07/31 03:56:05;;;;;;;8.25;2.30;;;;;;;;;;6250584;23;20036;-84
2021/07/31 03:58:35;;;;;;;6.72;2.17;;;;;;;;;;6252262;23;20024;-84
2021/07/31 04:01:01;;;;;;;10.18;2.92;;;;;;;;;;6252763;23;20038;-84
2021/07/31 04:03:28;;;;;;;6.65;2.65;;;;;;;;;;6251862;23;20031;-84
2021/07/31 04:05:54;;;;;;;7.35;2.28;;;;;;;;;;6252576;23;20024;-84
2021/07/31 04:08:21;;;;;;;8.23;2.38;;;;;;;;;;6253380;23;20055;-83
2021/07/31 04:10:47;;;;;;;4.55;2.28;;;;;;;;;;6226172;23;20054;-86
2021/07/31 04:13:14;;;;;;;7.10;2.47;;;;;;;;;;6252724;23;20032;-84
2021/07/31 04:15:41;;;;;;;8.65;3.13;;;;;;;;;;6252855;23;20350;-84
2021/07/31 04:18:08;;;;;;;13.23;3.10;;;;;;;;;;6254993;23;20076;-84
2021/07/31 04:20:34;;;;;;;6.07;2.47;;;;;;;;;;6242241;22;20261;-83
2021/07/31 04:23:01;;;;;;;8.05;2.70;;;;;;;;;;6266047;22;20032;-84
2021/07/31 04:25:28;;;;;;;13.07;2.60;;;;;;;;;;6227215;23;20024;-84
2021/07/31 04:27:59;;;;;;;6.43;2.67;;;;;;;;;;6226909;23;20059;-84
2021/07/31 04:30:27;;;;;;;8.20;3.20;;;;;;;;;;6223393;23;20387;-84
2021/07/31 04:32:55;;;;;;;15.77;3.08;;;;;;;;;;6224419;22;20028;-84
2021/07/31 04:35:21;;;;;;;15.30;2.90;;;;;;;;;;6249668;23;20035;-84
2021/07/31 04:37:48;;;;;;;11.20;2.55;;;;;;;;;;6250849;23;20024;-84
2021/07/31 04:40:15;;;;;;;6.32;2.72;;;;;;;;;;6250185;23;20032;-83
2021/07/31 04:42:41;;;;;;;6.18;2.67;;;;;;;;;;6234783;22;20060;-82
2021/07/31 04:45:08;;;;;;;7.90;3.40;;;;;;;;;;6242562;22;20064;-84
2021/07/31 04:47:36;;;;;;;6.30;2.45;;;;;;;;;;6242854;22;20028;-83
2021/07/31 04:50:04;;;;;;;11.38;2.95;;;;;;;;;;6268535;22;20034;-84
2021/07/31 04:52:37;;;;;;;6.10;2.40;;;;;;;;;;6266503;22;20103;-84
2021/07/31 04:55:03;;;;;;;7.55;2.40;;;;;;;;;;6226081;23;20382;-84
2021/07/31 04:57:30;;;;;;;9.52;2.58;;;;;;;;;;6253945;23;20044;-84
2021/07/31 04:59:58;;;;;;;10.32;2.78;;;;;;;;;;6251925;23;20024;-84
2021/07/31 05:02:36;;;;;;;7.82;2.55;;;;;;;;;;6255656;23;20028;-83
2021/07/31 05:05:03;;;;;;;6.60;2.78;;;;;;;;;;6256199;23;20024;-85
2021/07/31 05:07:30;;;;;;;12.00;2.20;;;;;;;;;;6256348;23;20051;-84
2021/07/31 05:09:57;;;;;;;9.25;2.70;;;;;;;;;;6269577;22;20165;-84
2021/07/31 05:12:24;;;;;;;6.05;2.05;;;;;;;;;;6268464;22;20008;-84
2021/07/31 05:14:54;;;;;;;9.55;2.30;;;;;;;;;;6269358;22;20032;-84
2021/07/31 05:17:26;;;;;;;8.13;2.03;;;;;;;;;;6259720;22;20048;-85
2021/07/31 05:19:52;;;;;;;7.00;1.73;;;;;;;;;;6257099;23;20047;-84
2021/07/31 05:22:21;;;;;;;8.88;2.30;;;;;;;;;;6257633;23;20232;-85
2021/07/31 05:24:53;;;;;;;14.32;2.20;;;;;;;;;;6238194;23;20072;-84
2021/07/31 05:27:20;;;;;;;4.57;1.90;;;;;;;;;;6265229;23;20024;-84
2021/07/31 05:29:47;;;;;;;8.60;2.33;;;;;;;;;;6262286;23;20063;-84
2021/07/31 05:32:13;;;;;;;13.65;2.20;;;;;;;;;;6240289;22;20381;-84
2021/07/31 05:34:42;;;;;;;6.43;1.70;;;;;;;;;;6259069;22;20049;-85
2021/07/31 05:37:08;;;;;;;8.07;2.33;;;;;;;;;;6258274;22;20043;-85
2021/07/31 05:39:35;;;;;;;11.75;2.15;;;;;;;;;;6284116;22;20012;-84
2021/07/31 05:42:02;;;;;;;6.03;2.17;;;;;;;;;;6259515;22;20043;-83
2021/07/31 05:44:29;;;;;;;12.50;2.30;;;;;;;;;;6283066;22;20094;-84
2021/07/31 05:46:55;;;;;;;6.65;2.33;;;;;;;;;;6282831;22;20078;-84
2021/07/31 05:49:22;;;;;;;9.95;2.55;;;;;;;;;;6257126;22;20054;-84
2021/07/31 05:51:48;;;;;;;5.80;1.92;;;;;;;;;;6257601;22;20027;-84
2021/07/31 05:54:15;;;;;;;10.82;2.25;;;;;;;;;;6256131;22;20120;-84
2021/07/31 05:56:42;;;;;;;4.68;2.13;;;;;;;;;;6256776;22;20027;-84
2021/07/31 05:59:08;;;;;;;10.25;1.92;;;;;;;;;;6256195;22;20272;-84
2021/07/31 06:01:36;;;;;;;4.40;1.67;;;;;;;;;;6284565;22;20024;-84
2021/07/31 06:04:03;;;;;;;11.65;2.00;;;;;;;;;;6266452;22;20270;-84
2021/07/31 06:06:30;;;;;;;7.53;2.13;;;;;;;;;;6270146;22;20114;-84
2021/07/31 06:08:57;;;;;;;10.57;2.20;;;;;;;;;;6262343;22;20024;-84
2021/07/31 06:11:24;;;;;;;8.05;2.33;;;;;;;;;;6284840;22;20031;-85
2021/07/31 06:13:51;;;;;;;6.47;2.10;;;;;;;;;;6290286;22;20731;-85
2021/07/31 06:16:18;;;;;;;10.82;2.20;;;;;;;;;;6297796;22;20072;-85
2021/07/31 06:18:45;;;;;;;4.90;1.85;;;;;;;;;;6286883;22;20032;-85
2021/07/31 06:21:20;;;;;;;5.05;1.73;;;;;;;;;;6259830;22;20023;-85
2021/07/31 06:23:46;;;;;;;4.80;1.60;;;;;;;;;;6285893;22;20141;-86
2021/07/31 06:26:13;;;;;;;10.82;1.85;;;;;;;;;;6258073;22;20024;-86
2021/07/31 06:28:40;;;;;;;6.95;1.88;;;;;;;;;;6280923;22;20312;-86
2021/07/31 06:31:07;;;;;;;8.43;2.53;;;;;;;;;;6281094;22;20042;-85
2021/07/31 06:33:33;;;;;;;8.93;2.35;;;;;;;;;;6256809;22;20317;-86
2021/07/31 06:36:01;;;;;;;8.73;2.38;;;;;;;;;;6284818;22;20058;-85
2021/07/31 06:38:27;;;;;;;9.40;2.60;;;;;;;;;;6287930;22;20020;-85
2021/07/31 06:40:54;;;;;;;8.57;2.20;;;;;;;;;;6289604;22;20024;-86
2021/07/31 06:43:24;;;;;;;8.05;2.05;;;;;;;;;;6288336;22;20020;-85
2021/07/31 06:45:50;;;;;;;5.55;2.35;;;;;;;;;;6289276;22;20020;-84
2021/07/31 06:48:17;;;;;;;9.45;2.38;;;;;;;;;;6288699;22;20047;-85
2021/07/31 06:50:43;;;;;;;7.20;2.50;;;;;;;;;;6287637;22;20037;-86
2021/07/31 06:53:10;;;;;;;14.55;2.92;;;;;;;;;;6262005;22;20031;-85
2021/07/31 06:55:37;;;;;;;8.50;2.55;;;;;;;;;;6287855;22;20249;-86
2021/07/31 06:58:06;;;;;;;9.15;2.85;;;;;;;;;;6289932;22;20054;-85
2021/07/31 07:00:36;;;;;;;6.25;2.63;;;;;;;;;;6267650;22;20024;-85
2021/07/31 07:03:03;;;;;;;6.05;2.45;;;;;;;;;;6290775;22;20024;-86
2021/07/31 07:05:30;;;;;;;8.07;2.55;;;;;;;;;;6255247;22;20030;-84
2021/07/31 07:08:03;;;;;;;5.43;1.95;;;;;;;;;;6252051;22;20428;-84
2021/07/31 07:10:30;;;;;;;6.45;3.33;;;;;;;;;;6289449;22;20301;-83
2021/07/31 07:12:57;;;;;;;8.18;2.53;;;;;;;;;;6252159;22;20035;-84
2021/07/31 07:15:27;;;;;;;5.68;1.98;;;;;;;;;;6252361;22;20413;-84
2021/07/31 07:17:56;;;;;;;11.18;2.78;;;;;;;;;;6277286;22;20051;-84
2021/07/31 07:20:23;;;;;;;10.52;2.10;;;;;;;;;;6275855;22;20301;-83
2021/07/31 07:22:50;;;;;;;10.10;2.08;;;;;;;;;;6275310;22;20024;-84
2021/07/31 07:25:17;;;;;;;9.50;2.25;;;;;;;;;;6249632;22;20029;-84
2021/07/31 07:27:44;;;;;;;8.50;1.88;;;;;;;;;;6249300;22;20209;-84
2021/07/31 07:30:12;;;;;;;6.07;2.28;;;;;;;;;;6252369;22;20027;-85
2021/07/31 07:32:42;;;;;;;11.93;2.20;;;;;;;;;;6246785;22;20035;-84
2021/07/31 07:35:09;;;;;;;8.13;2.10;;;;;;;;;;6249990;22;20043;-83
2021/07/31 07:37:36;;;;;;;6.75;2.47;;;;;;;;;;6294811;22;20019;-83
2021/07/31 07:40:04;;;;;;;13.35;2.28;;;;;;;;;;6268285;22;20015;-83
2021/07/31 07:42:31;;;;;;;4.20;1.70;;;;;;;;;;6278012;22;20039;-84
2021/07/31 07:45:04;;;;;;;3.45;1.50;;;;;;;;;;6249074;22;20267;-84
2021/07/31 07:47:31;;;;;;;5.18;2.22;;;;;;;;;;6249878;22;20039;-85
2021/07/31 07:49:59;;;;;;;8.77;2.55;;;;;;;;;;6249215;22;20031;-84
2021/07/31 07:52:25;;;;;;;6.18;2.35;;;;;;;;;;6275816;22;20031;-83
2021/07/31 07:54:52;;;;;;;9.45;2.40;;;;;;;;;;6275436;22;20101;-84
2021/07/31 07:57:22;;;;;;;8.63;2.65;;;;;;;;;;6250173;22;20349;-84
2021/07/31 07:59:55;;;;;;;6.38;2.28;;;;;;;;;;6302093;22;20028;-84
2021/07/31 08:02:22;;;;;;;6.32;2.00;;;;;;;;;;6250100;22;20047;-84
2021/07/31 08:04:49;;;;;;;8.20;2.50;;;;;;;;;;6252361;22;20028;-84
2021/07/31 08:07:25;;;;;;;10.43;2.50;;;;;;;;;;6302088;22;20051;-85
2021/07/31 08:09:55;;;;;;;8.18;2.08;;;;;;;;;;6279859;22;20035;-84
2021/07/31 08:12:21;;;;;;;9.88;2.28;;;;;;;;;;6251393;22;20103;-84
2021/07/31 08:14:52;;;;;;;4.07;2.17;;;;;;;;;;6277103;22;20024;-84
2021/07/31 08:17:19;;;;;;;4.70;2.22;;;;;;;;;;6279316;22;20073;-84
2021/07/31 08:19:46;;;;;;;5.15;2.33;;;;;;;;;;6251000;22;20023;-83
2021/07/31 08:22:13;;;;;;;4.22;2.17;;;;;;;;;;6311280;22;20031;-84
2021/07/31 08:24:40;;;;;;;13.20;2.30;;;;;;;;;;6291735;22;20405;-84
2021/07/31 08:27:07;;;;;;;7.68;3.08;;;;;;;;;;6265557;22;20034;-85
2021/07/31 08:29:33;;;;;;;8.68;2.63;;;;;;;;;;6291042;22;20074;-84
2021/07/31 08:32:00;;;;;;;6.03;1.95;;;;;;;;;;6255957;22;20536;-84
2021/07/31 08:34:29;;;;;;;5.93;2.03;;;;;;;;;;6251430;22;20027;-84
2021/07/31 08:37:00;;;;;;;8.07;2.58;;;;;;;;;;6253423;22;20059;-84
2021/07/31 08:39:26;;;;;;;6.03;2.08;;;;;;;;;;6250097;22;20055;-84
2021/07/31 08:41:57;;;;;;;14.02;2.50;;;;;;;;;;6301910;22;20102;-84
2021/07/31 08:44:23;;;;;;;8.23;2.17;;;;;;;;;;6250534;22;20028;-84
2021/07/31 08:46:51;;;;;;;6.00;2.03;;;;;;;;;;6250841;22;20024;-84
2021/07/31 08:49:18;;;;;;;5.70;2.28;;;;;;;;;;6250727;22;20028;-84
2021/07/31 08:51:46;;;;;;;5.10;1.90;;;;;;;;;;6250126;22;20106;-85
2021/07/31 08:54:12;;;;;;;5.85;2.28;;;;;;;;;;6276063;22;20295;-84
2021/07/31 08:56:45;;;;;;;6.57;2.50;;;;;;;;;;6248567;22;20070;-84
2021/07/31 08:59:12;;;;;;;6.72;2.20;;;;;;;;;;6247935;22;20175;-84
2021/07/31 09:01:40;;;;;;;7.40;1.90;;;;;;;;;;6258573;22;20042;-84
2021/07/31 09:04:16;;;;;;;6.00;2.20;;;;;;;;;;6317168;22;20026;-84
2021/07/31 09:06:45;;;;;;;4.25;1.65;;;;;;;;;;6279140;22;20082;-85
2021/07/31 09:09:12;;;;;;;5.53;2.03;;;;;;;;;;6246536;22;20090;-84
2021/07/31 09:11:58;;;;;;;5.60;1.60;;;;;;;;;;6279248;22;20038;-84
2021/07/31 09:14:25;;;;;;;;;;;;;;;;;;6263479;22;20405;-85
2021/07/31 09:16:55;;;;;;;5.40;1.77;;;;;;;;;;6300998;22;19934;-83
2021/07/31 09:19:24;;;;;;;9.20;1.70;;;;;;;;;;6249073;22;20110;-84
2021/07/31 09:21:51;;;;;;;5.15;1.70;;;;;;;;;;6248334;22;20023;-85
2021/07/31 09:24:22;;;;;;;5.38;1.55;;;;;;;;;;6247444;22;20024;-83
2021/07/31 09:26:50;;;;;;;8.55;1.60;;;;;;;;;;6254410;22;20083;-84
2021/07/31 09:29:37;;;;;;;4.10;1.77;;;;;;;;;;6288408;22;20023;-84
2021/07/31 09:32:05;;;;;;;5.25;1.55;;;;;;;;;;6263235;22;20023;-84
2021/07/31 09:34:36;;;;;;;3.78;1.17;;;;;;;;;;6313275;22;20047;-84
2021/07/31 09:37:25;;;;;;;4.13;1.70;;;;;;;;;;6263604;22;20030;-84
2021/07/31 09:39:55;;;;;;;2.58;1.02;;;;;;;;;;6283407;22;20024;-84
2021/07/31 09:42:41;;;;;;;4.47;1.80;;;;;;;;;;6261094;22;20019;-84
2021/07/31 09:45:11;;;;;;;4.95;1.38;;;;;;;;;;6286764;22;20319;-84
2021/07/31 09:47:56;;;;;;;4.03;1.40;;;;;;;;;;6280155;22;20517;-84
2021/07/31 09:50:43;;;;;;;4.53;1.38;;;;;;;;;;6250155;22;20117;-85
2021/07/31 09:53:11;;;;;;;3.00;1.73;;;;;;;;;;6246076;22;20179;-83
2021/07/31 09:55:49;;;;;;;5.18;1.70;;;;;;;;;;6273765;22;20023;-83
2021/07/31 09:58:26;;;;;;;4.47;1.70;;;;;;;;;;6248621;22;20023;-84
2021/07/31 10:00:55;;;;;;;9.50;1.75;;;;;;;;;;6274799;22;20283;-83
2021/07/31 10:03:23;;;;;;;2.42;1.00;;;;;;;;;;6247225;22;20409;-83
2021/07/31 10:05:53;;;;;;;5.75;1.10;;;;;;;;;;6300407;22;20228;-84
2021/07/31 10:08:38;;;;;;;6.30;1.13;;;;;;;;;;6255277;22;20084;-84
2021/07/31 10:11:05;;;;;;;1.92;1.20;;;;;;;;;;6251003;22;20219;-84
2021/07/31 10:13:33;;;;;;;2.15;1.02;;;;;;;;;;6247136;22;20055;-84
2021/07/31 10:16:00;;;;;;;2.75;1.50;;;;;;;;;;6244848;22;20264;-84
2021/07/31 10:18:28;;;;;;;2.88;1.30;;;;;;;;;;6271507;22;20058;-83
2021/07/31 10:21:03;;;;;;;4.57;2.03;;;;;;;;;;6272370;22;20035;-83
2021/07/31 10:23:48;;;;;;;5.03;2.28;;;;;;;;;;6251329;22;20066;-83
2021/07/31 10:26:29;;;;;;;10.00;2.10;;;;;;;;;;6262944;22;20024;-84
2021/07/31 10:29:14;;;;;;;2.33;1.60;;;;;;;;;;6252241;22;20023;-84
2021/07/31 10:31:45;;;;;;;4.22;1.63;;;;;;;;;;6247552;22;20023;-84
2021/07/31 10:34:32;;;;;;;5.43;1.80;;;;;;;;;;6247747;23;20429;-85
2021/07/31 10:36:58;;;;;;;3.53;1.50;;;;;;;;;;6223421;23;20046;-83
2021/07/31 10:39:28;;;;;;;1.70;1.05;;;;;;;;;;6219848;23;20082;-84
2021/07/31 10:41:59;;;;;;;5.32;1.40;;;;;;;;;;6220192;23;20024;-84
2021/07/31 10:44:28;;;;;;;5.35;1.40;;;;;;;;;;6245228;23;20050;-85
2021/07/31 10:47:14;;;;;;;3.63;1.30;;;;;;;;;;6243572;23;20249;-85
2021/07/31 10:49:41;;;;;;;5.15;1.50;;;;;;;;;;6218684;23;20028;-85
2021/07/31 10:52:07;;;;;;;5.25;1.30;;;;;;;;;;6220651;23;20024;-85
2021/07/31 10:54:53;;;;;;;7.18;1.73;;;;;;;;;;6260960;22;20187;-85
2021/07/31 10:57:22;;;;;;;6.50;1.67;;;;;;;;;;6236366;22;20043;-85
2021/07/31 11:00:07;;;;;;;5.30;2.13;;;;;;;;;;6221420;23;20103;-85
2021/07/31 11:02:38;;;;;;;4.88;1.60;;;;;;;;;;6240788;23;20034;-86
2021/07/31 11:05:11;;;;;;;4.75;1.65;;;;;;;;;;6215763;23;20297;-85
2021/07/31 11:07:57;;;;;;;3.42;1.35;;;;;;;;;;6215711;23;20020;-84
2021/07/31 11:10:42;;;;;;;4.70;1.20;;;;;;;;;;6241372;23;20031;-84
2021/07/31 11:13:11;;;;;;;5.18;1.30;;;;;;;;;;6217272;23;20398;-84
2021/07/31 11:15:58;;;;;;;1.63;0.98;;;;;;;;;;6216193;23;20024;-84
2021/07/31 11:18:39;;;;;;;3.63;1.35;;;;;;;;;;6243287;23;20058;-85
2021/07/31 11:21:08;;;;;;;12.05;1.70;;;;;;;;;;6243189;23;20111;-84
2021/07/31 11:23:44;;;;;;;8.60;1.50;;;;;;;;;;6214974;23;20043;-85
2021/07/31 11:26:11;;;;;;;;;;;;;;;;;;6243915;23;20024;-84
2021/07/31 11:28:38;;;;;;;9.68;1.50;;;;;;;;;;6215099;23;20083;-84
2021/07/31 11:31:26;;;;;;;9.68;1.63;;;;;;;;;;6213924;23;20215;-84
2021/07/31 11:34:06;;;;;;;6.85;2.15;;;;;;;;;;6243889;23;20039;-84
2021/07/31 11:36:33;;;;;;;6.90;2.45;;;;;;;;;;6243932;23;20059;-83
2021/07/31 11:39:01;;;;;;;9.48;3.55;;;;;;;;;;6213482;23;20024;-80
2021/07/31 11:41:28;;;;;;;10.98;4.00;;;;;;;;;;6212493;23;20082;-81
2021/07/31 11:43:57;;;;;;;8.80;3.83;;;;;;;;;;6213485;23;20099;-80
2021/07/31 11:46:24;;;;;;;8.65;3.00;;;;;;;;;;6238032;23;20277;-79
2021/07/31 11:49:00;;;;;;;5.95;2.22;;;;;;;;;;6238466;23;20094;-80
2021/07/31 11:51:27;;;;;;;4.78;4.25;;;;;;;;;;6238646;23;20055;-79
2021/07/31 11:53:54;;;;;;;3.10;2.20;;;;;;;;;;6210569;23;20036;-80
2021/07/31 11:56:24;;;;;;;2.15;1.27;;;;;;;;;;6215510;23;20028;-81
2021/07/31 11:59:02;;;;;;;4.43;0.85;;;;;;;;;;6255574;23;20035;-79
2021/07/31 12:01:29;;;;;;;2.78;1.10;;;;;;;;;;6229429;23;20262;-80
2021/07/31 12:03:56;;;;;;;4.97;1.15;;;;;;;;;;6231382;23;20205;-81
2021/07/31 12:06:50;;;;;;;3.53;1.45;;;;;;;;;;6228646;23;20035;-80
2021/07/31 12:09:27;;;;;;;3.60;1.98;;;;;;;;;;6250750;23;20127;-80
2021/07/31 12:11:55;;;;;;;5.38;2.22;;;;;;;;;;6245340;23;20136;-81
2021/07/31 12:14:40;;;;;;;9.32;2.40;;;;;;;;;;6216296;23;20111;-81
2021/07/31 12:17:18;;;;;;;4.20;2.63;;;;;;;;;;6214784;23;20028;-81
2021/07/31 12:19:49;;;;;;;14.98;8.23;;;;;;;;;;6240250;23;20027;-81
2021/07/31 12:22:17;;;;;;;12.07;5.18;;;;;;;;;;6228168;23;20028;-81
2021/07/31 12:24:45;;;;;;;13.93;6.40;;;;;;;;;;6230981;22;20031;-81
2021/07/31 12:27:11;;;;;;;6.50;3.95;;;;;;;;;;6234110;22;20024;-81
2021/07/31 12:29:39;;;;;;;16.05;8.32;;;;;;;;;;6229988;23;20107;-81
2021/07/31 12:32:21;;;;;;;15.82;10.10;;;;;;;;;;6220849;23;20122;-81
2021/07/31 12:34:49;;;;;;;13.75;9.57;;;;;;;;;;6212719;23;20593;-82
2021/07/31 12:37:16;;;;;;;8.23;5.22;;;;;;;;;;6212854;23;20153;-82
2021/07/31 12:39:42;;;;;;;6.00;3.90;;;;;;;;;;6212439;23;20454;-82
2021/07/31 12:42:25;;;;;;;8.82;3.47;;;;;;;;;;6213575;23;20111;-84
2021/07/31 12:44:51;;;;;;;7.45;3.00;;;;;;;;;;6243220;23;20030;-84
2021/07/31 12:47:18;;;;;;;6.15;3.03;;;;;;;;;;6240027;23;20028;-84
2021/07/31 12:49:45;;;;;;;5.00;2.50;;;;;;;;;;6242770;23;20103;-84
2021/07/31 12:52:11;;;;;;;6.03;2.95;;;;;;;;;;6212232;23;20028;-84
2021/07/31 12:54:38;;;;;;;7.05;2.60;;;;;;;;;;6211654;23;20024;-84
2021/07/31 12:57:05;;;;;;;6.90;2.38;;;;;;;;;;6238017;23;20244;-82
2021/07/31 12:59:31;;;;;;;7.18;2.42;;;;;;;;;;6238929;23;20099;-84
2021/07/31 13:02:13;;;;;;;5.57;2.53;;;;;;;;;;6216701;23;20366;-84
2021/07/31 13:04:46;;;;;;;7.70;2.38;;;;;;;;;;6211142;23;20114;-84
2021/07/31 13:07:12;;;;;;;6.82;2.85;;;;;;;;;;6239071;23;20204;-82
2021/07/31 13:09:41;;;;;;;4.00;1.75;;;;;;;;;;6239330;23;20298;-82
2021/07/31 13:12:08;;;;;;;6.93;2.47;;;;;;;;;;6212479;23;20128;-84
2021/07/31 13:14:35;;;;;;;3.88;2.10;;;;;;;;;;6240409;23;20309;-84
2021/07/31 13:17:04;;;;;;;5.32;1.80;;;;;;;;;;6215182;23;20040;-84
2021/07/31 13:19:31;;;;;;;3.60;1.60;;;;;;;;;;6216505;23;20028;-84
2021/07/31 13:21:57;;;;;;;5.28;1.80;;;;;;;;;;6214134;23;20024;-84
2021/07/31 13:24:24;;;;;;;5.53;1.67;;;;;;;;;;6214662;23;20273;-84
2021/07/31 13:26:51;;;;;;;10.00;2.05;;;;;;;;;;6213924;23;20030;-85
2021/07/31 13:29:17;;;;;;;5.93;1.52;;;;;;;;;;6217693;23;20115;-84
2021/07/31 13:31:46;;;;;;;6.32;2.03;;;;;;;;;;6247324;22;20036;-85
2021/07/31 13:34:14;;;;;;;4.38;1.50;;;;;;;;;;6245038;23;20084;-84
2021/07/31 13:36:41;;;;;;;3.45;1.67;;;;;;;;;;6220712;23;20028;-85
2021/07/31 13:39:10;;;;;;;3.40;1.50;;;;;;;;;;6246978;23;20082;-84
2021/07/31 13:41:36;;;;;;;3.25;1.80;;;;;;;;;;6245399;23;20020;-85
2021/07/31 13:44:08;;;;;;;3.70;1.50;;;;;;;;;;6219617;23;20031;-84
2021/07/31 13:46:38;;;;;;;3.83;1.60;;;;;;;;;;6216985;23;20032;-84
2021/07/31 13:49:05;;;;;;;2.47;1.42;;;;;;;;;;6244759;23;20039;-84
2021/07/31 13:51:31;;;;;;;4.25;1.75;;;;;;;;;;6218411;23;20039;-85
2021/07/31 13:54:03;;;;;;;3.83;1.63;;;;;;;;;;6219257;23;20035;-85
2021/07/31 13:56:36;;;;;;;3.63;1.70;;;;;;;;;;6222700;23;20028;-85
2021/07/31 13:59:03;;;;;;;3.80;2.00;;;;;;;;;;6227532;23;20028;-83
2021/07/31 14:01:31;;;;;;;4.13;2.13;;;;;;;;;;6224248;23;20197;-84
2021/07/31 14:03:58;;;;;;;4.43;1.70;;;;;;;;;;6222875;23;20024;-84
2021/07/31 14:06:27;;;;;;;3.72;1.75;;;;;;;;;;6248495;23;20024;-84
2021/07/31 14:08:54;;;;;;;3.97;1.40;;;;;;;;;;6220170;23;20086;-84
2021/07/31 14:11:20;;;;;;;4.07;1.77;;;;;;;;;;6226237;22;20242;-85
2021/07/31 14:13:47;;;;;;;2.22;1.70;;;;;;;;;;6263368;22;20016;-84
2021/07/31 14:16:14;;;;;;;3.45;1.75;;;;;;;;;;6258698;22;20024;-83
2021/07/31 14:18:40;;;;;;;3.33;2.10;;;;;;;;;;6247478;23;20398;-85
2021/07/31 14:21:08;;;;;;;4.50;2.15;;;;;;;;;;6221503;23;20098;-84
2021/07/31 14:23:36;;;;;;;2.08;1.63;;;;;;;;;;6257572;23;20013;-83
2021/07/31 14:26:07;;;;;;;5.15;1.58;;;;;;;;;;6236207;23;20047;-85
2021/07/31 14:28:34;;;;;;;4.80;1.38;;;;;;;;;;6237195;23;20068;-85
2021/07/31 14:31:00;;;;;;;3.78;1.35;;;;;;;;;;6234078;23;20028;-84
2021/07/31 14:33:27;;;;;;;2.13;0.80;;;;;;;;;;6274946;22;20035;-85
2021/07/31 14:35:54;;;;;;;3.33;1.10;;;;;;;;;;6280897;22;20238;-85
2021/07/31 14:38:20;;;;;;;3.50;1.00;;;;;;;;;;6252697;22;20075;-85
2021/07/31 14:40:47;;;;;;;3.65;0.95;;;;;;;;;;6251587;22;20090;-86
2021/07/31 14:43:17;;;;;;;2.45;1.08;;;;;;;;;;6265244;22;20133;-84
2021/07/31 14:45:44;;;;;;;2.85;1.15;;;;;;;;;;6255139;22;20038;-85
2021/07/31 14:48:12;;;;;;;10.15;1.35;;;;;;;;;;6278042;22;20024;-86
2021/07/31 14:50:46;;;;;;;4.63;1.17;;;;;;;;;;6257189;22;20038;-84
2021/07/31 14:53:13;;;;;;;3.83;1.00;;;;;;;;;;6268301;22;20078;-85